Time;durP1;ratioP1;P1;durP2;ratioP2;P2;SDS_P1;SDS_P2;PMS_P1;PMS_P2;Temp;Humidity;BMP_temperature;BMP_pressure;BME280_temperature;BME280_humidity;BME280_pressure;Samples;Min_cycle;Max_cycle;Signal;HPM_P1;HPM_P2
2023/06/06 00:01:03;;;;;;;;;;;19.80;99.90;;;;;;5090636;28;19951;-40
2023/06/06 00:03:28;;;;;;;;;;;19.80;99.90;;;;;;5090936;28;19912;-40
2023/06/06 00:05:55;;;;;;;;;;;19.80;99.90;;;;;;5091008;28;19912;-40
2023/06/06 00:08:23;;;;;;;;;;;19.80;99.90;;;;;;5090943;28;19976;-40
2023/06/06 00:10:49;;;;;;;;;;;19.80;99.90;;;;;;5091469;28;20262;-39
2023/06/06 00:13:15;;;;;;;;;;;19.80;99.90;;;;;;5094520;28;19980;-40
2023/06/06 00:15:41;;;;;;;;;;;19.80;99.90;;;;;;5094592;28;20391;-40
2023/06/06 00:18:07;;;;;;;;;;;19.70;99.90;;;;;;5094516;28;19955;-40
2023/06/06 00:20:32;;;;;;;;;;;19.70;99.90;;;;;;5094105;28;20361;-40
2023/06/06 00:22:59;;;;;;;;;;;19.70;99.90;;;;;;5094491;28;19947;-40
2023/06/06 00:25:25;;;;;;;;;;;19.70;99.90;;;;;;5094203;28;20056;-40
2023/06/06 00:27:50;;;;;;;;;;;19.70;99.90;;;;;;5094203;28;20007;-40
2023/06/06 00:30:16;;;;;;;;;;;19.70;99.90;;;;;;5093846;28;19989;-39
2023/06/06 00:32:41;;;;;;;;;;;19.70;99.90;;;;;;5094207;28;19916;-39
2023/06/06 00:35:07;;;;;;;;;;;19.70;99.90;;;;;;5094091;28;20405;-40
2023/06/06 00:37:32;;;;;;;;;;;19.70;99.90;;;;;;5094786;28;19916;-40
2023/06/06 00:39:58;;;;;;;;;;;19.70;99.90;;;;;;5094038;28;20396;-40
2023/06/06 00:42:24;;;;;;;;;;;19.70;99.90;;;;;;5093840;28;19914;-39
2023/06/06 00:44:49;;;;;;;;;;;19.70;99.90;;;;;;5093992;28;20006;-40
2023/06/06 00:47:15;;;;;;;;;;;19.60;99.90;;;;;;5093897;28;19939;-39
2023/06/06 00:49:41;;;;;;;;;;;19.60;99.90;;;;;;5094062;28;19915;-39
2023/06/06 00:52:07;;;;;;;;;;;19.60;99.90;;;;;;5093543;28;19912;-40
2023/06/06 00:54:33;;;;;;;;;;;19.60;99.90;;;;;;5093561;28;20408;-40
2023/06/06 00:57:00;;;;;;;;;;;19.60;99.90;;;;;;5093716;28;19947;-39
2023/06/06 00:59:26;;;;;;;;;;;19.60;99.90;;;;;;5093725;28;19969;-39
2023/06/06 01:01:51;;;;;;;;;;;19.60;99.90;;;;;;5093282;28;19912;-39
2023/06/06 01:04:17;;;;;;;;;;;19.60;99.90;;;;;;5093518;28;19981;-40
2023/06/06 01:06:42;;;;;;;;;;;19.60;99.90;;;;;;5093544;28;19912;-40
2023/06/06 01:09:09;;;;;;;;;;;19.60;99.90;;;;;;5093497;28;19912;-40
2023/06/06 01:11:37;;;;;;;;;;;19.60;99.90;;;;;;5093121;28;19915;-40
2023/06/06 01:14:11;;;;;;;;;;;19.50;99.90;;;;;;5093339;28;19965;-40
2023/06/06 01:16:38;;;;;;;;;;;19.60;99.90;;;;;;5093607;28;19969;-39
2023/06/06 01:19:04;;;;;;;;;;;19.50;99.90;;;;;;5092207;28;20499;-40
2023/06/06 01:21:39;;;;;;;;;;;19.50;99.90;;;;;;5092740;28;19936;-39
2023/06/06 01:24:05;;;;;;;;;;;19.50;99.90;;;;;;5092695;28;20385;-40
2023/06/06 01:26:30;;;;;;;;;;;19.50;99.90;;;;;;5093047;28;19916;-40
2023/06/06 01:28:56;;;;;;;;;;;19.60;99.90;;;;;;5093329;28;19909;-39
2023/06/06 01:31:22;;;;;;;;;;;19.50;99.90;;;;;;5093156;28;20392;-40
2023/06/06 01:34:01;;;;;;;;;;;19.50;99.90;;;;;;5093302;28;20007;-40
2023/06/06 01:36:49;;;;;;;;;;;19.50;99.90;;;;;;5092994;28;20193;-40
2023/06/06 01:39:17;;;;;;;;;;;19.50;99.90;;;;;;5073039;28;19908;-40
2023/06/06 01:41:45;;;;;;;;;;;19.50;99.90;;;;;;5093038;28;19999;-40
2023/06/06 01:44:11;;;;;;;;;;;19.50;99.90;;;;;;5093637;28;19988;-40
2023/06/06 01:46:36;;;;;;;;;;;19.50;99.90;;;;;;5093412;28;20392;-39
2023/06/06 01:49:02;;;;;;;;;;;19.50;99.90;;;;;;5092794;28;19951;-40
2023/06/06 01:51:28;;;;;;;;;;;19.50;99.90;;;;;;5093103;28;19919;-40
2023/06/06 01:53:57;;;;;;;;;;;19.40;99.90;;;;;;5092609;28;19919;-39
2023/06/06 01:56:24;;;;;;;;;;;19.50;99.90;;;;;;5092666;28;19947;-40
2023/06/06 01:58:50;;;;;;;;;;;19.50;99.90;;;;;;5092652;28;19912;-40
2023/06/06 02:01:15;;;;;;;;;;;19.40;99.90;;;;;;5092005;28;19968;-40
2023/06/06 02:03:41;;;;;;;;;;;19.40;99.90;;;;;;5092270;28;19947;-40
2023/06/06 02:06:06;;;;;;;;;;;19.40;99.90;;;;;;5093208;28;20420;-40
2023/06/06 02:08:32;;;;;;;;;;;19.40;99.90;;;;;;5092409;28;19915;-40
2023/06/06 02:10:57;;;;;;;;;;;19.40;99.90;;;;;;5091997;28;19912;-40
2023/06/06 02:13:23;;;;;;;;;;;19.40;99.90;;;;;;5092217;28;20278;-40
2023/06/06 02:15:49;;;;;;;;;;;19.40;99.90;;;;;;5092211;28;19908;-40
2023/06/06 02:18:14;;;;;;;;;;;19.40;99.90;;;;;;5092440;28;19908;-39
2023/06/06 02:20:40;;;;;;;;;;;19.40;99.90;;;;;;5092922;28;19919;-40
2023/06/06 02:23:05;;;;;;;;;;;19.40;99.90;;;;;;5092225;28;20281;-40
2023/06/06 02:25:33;;;;;;;;;;;19.30;99.90;;;;;;5092038;28;19939;-40
2023/06/06 02:27:58;;;;;;;;;;;19.30;99.90;;;;;;5092062;28;20022;-40
2023/06/06 02:30:24;;;;;;;;;;;19.30;99.90;;;;;;5091628;28;20537;-40
2023/06/06 02:32:50;;;;;;;;;;;19.30;99.90;;;;;;5091887;28;19912;-39
2023/06/06 02:35:18;;;;;;;;;;;19.30;99.90;;;;;;5091669;28;19919;-40
2023/06/06 02:37:43;;;;;;;;;;;19.30;99.90;;;;;;5091831;28;19915;-39
2023/06/06 02:40:10;;;;;;;;;;;19.30;99.90;;;;;;5091468;28;19912;-40
2023/06/06 02:42:39;;;;;;;;;;;19.30;99.90;;;;;;5092428;28;19908;-40
2023/06/06 02:45:05;;;;;;;;;;;19.30;99.90;;;;;;5092259;28;19908;-39
2023/06/06 02:47:31;;;;;;;;;;;19.20;99.90;;;;;;5091881;28;19914;-39
2023/06/06 02:49:56;;;;;;;;;;;19.20;99.90;;;;;;5091532;28;20348;-39
2023/06/06 02:52:23;;;;;;;;;;;19.20;99.90;;;;;;5091500;28;19912;-40
2023/06/06 02:54:48;;;;;;;;;;;19.20;99.90;;;;;;5091866;28;19913;-40
2023/06/06 02:57:14;;;;;;;;;;;19.20;99.90;;;;;;5091628;28;20011;-41
2023/06/06 02:59:40;;;;;;;;;;;19.20;99.90;;;;;;5090203;28;20268;-40
2023/06/06 03:02:07;;;;;;;;;;;19.20;99.90;;;;;;5091229;28;19908;-41
2023/06/06 03:04:33;;;;;;;;;;;19.20;99.90;;;;;;5091579;28;19912;-40
2023/06/06 03:06:58;;;;;;;;;;;19.20;99.90;;;;;;5091448;28;19908;-40
2023/06/06 03:09:24;;;;;;;;;;;19.20;99.90;;;;;;5091581;28;19908;-40
2023/06/06 03:11:50;;;;;;;;;;;19.20;99.90;;;;;;5091105;28;19943;-42
2023/06/06 03:14:16;;;;;;;;;;;19.10;99.90;;;;;;5091246;28;19916;-40
2023/06/06 03:16:42;;;;;;;;;;;19.10;99.90;;;;;;5091359;28;20297;-39
2023/06/06 03:19:08;;;;;;;;;;;19.10;99.90;;;;;;5091670;28;19916;-39
2023/06/06 03:21:34;;;;;;;;;;;19.10;99.90;;;;;;5091066;28;19919;-39
2023/06/06 03:24:00;;;;;;;;;;;19.10;99.90;;;;;;5091940;28;19908;-39
2023/06/06 03:26:26;;;;;;;;;;;19.10;99.90;;;;;;5091250;28;19916;-40
2023/06/06 03:28:52;;;;;;;;;;;19.10;99.90;;;;;;5091779;28;19908;-40
2023/06/06 03:31:23;;;;;;;;;;;19.10;99.90;;;;;;5091115;28;19916;-40
2023/06/06 03:33:49;;;;;;;;;;;19.10;99.90;;;;;;5091382;28;19923;-39
2023/06/06 03:36:16;;;;;;;;;;;19.10;99.90;;;;;;5091300;28;20381;-40
2023/06/06 03:38:42;;;;;;;;;;;19.00;99.90;;;;;;5091274;28;19908;-40
2023/06/06 03:41:08;;;;;;;;;;;19.00;99.90;;;;;;5090804;28;19913;-40
2023/06/06 03:43:34;;;;;;;;;;;19.00;99.90;;;;;;5091142;28;19943;-40
2023/06/06 03:46:00;;;;;;;;;;;19.00;99.90;;;;;;5092623;28;19951;-40
2023/06/06 03:48:25;;;;;;;;;;;19.00;99.90;;;;;;5095382;28;19913;-39
2023/06/06 03:50:51;;;;;;;;;;;19.00;99.90;;;;;;5094701;28;20404;-41
2023/06/06 03:53:16;;;;;;;;;;;19.00;99.90;;;;;;5094832;28;19919;-40
2023/06/06 03:55:44;;;;;;;;;;;19.00;99.90;;;;;;5094961;28;19908;-39
2023/06/06 03:58:10;;;;;;;;;;;19.00;99.90;;;;;;5094927;28;19916;-39
2023/06/06 04:00:37;;;;;;;;;;;19.00;99.90;;;;;;5094560;28;19909;-40
2023/06/06 04:03:03;;;;;;;;;;;19.00;99.90;;;;;;5095011;28;19915;-40
2023/06/06 04:05:32;;;;;;;;;;;18.90;99.90;;;;;;5094844;28;19908;-40
2023/06/06 04:07:59;;;;;;;;;;;18.90;99.90;;;;;;5094730;28;19908;-40
2023/06/06 04:10:24;;;;;;;;;;;18.90;99.90;;;;;;5094730;28;20274;-39
2023/06/06 04:12:50;;;;;;;;;;;18.90;99.90;;;;;;5094646;28;19916;-40
2023/06/06 04:15:16;;;;;;;;;;;18.90;99.90;;;;;;5094605;28;20270;-40
2023/06/06 04:17:41;;;;;;;;;;;18.90;99.90;;;;;;5094468;28;20414;-40
2023/06/06 04:20:08;;;;;;;;;;;18.90;99.90;;;;;;5094079;28;19908;-40
2023/06/06 04:22:34;;;;;;;;;;;18.90;99.90;;;;;;5095457;28;19908;-40
2023/06/06 04:24:59;;;;;;;;;;;18.80;99.90;;;;;;5094739;28;19919;-39
2023/06/06 04:27:25;;;;;;;;;;;18.90;99.90;;;;;;5094920;28;20361;-40
2023/06/06 04:29:57;;;;;;;;;;;18.80;99.90;;;;;;5094136;28;19974;-39
2023/06/06 04:32:23;;;;;;;;;;;18.90;99.90;;;;;;5094549;28;19909;-40
2023/06/06 04:34:51;;;;;;;;;;;18.90;99.90;;;;;;5094058;28;20383;-39
2023/06/06 04:37:17;;;;;;;;;;;18.90;99.90;;;;;;5094115;28;19912;-40
2023/06/06 04:39:43;;;;;;;;;;;18.90;99.90;;;;;;5094041;28;19908;-40
2023/06/06 04:42:08;;;;;;;;;;;18.90;99.90;;;;;;5093701;28;20397;-40
2023/06/06 04:44:41;;;;;;;;;;;18.90;99.90;;;;;;5094162;28;19912;-39
2023/06/06 04:47:10;;;;;;;;;;;18.90;99.90;;;;;;5094851;28;19998;-39
2023/06/06 04:49:38;;;;;;;;;;;18.90;99.90;;;;;;5093992;28;19943;-40
2023/06/06 04:52:05;;;;;;;;;;;18.90;99.90;;;;;;5093449;28;19915;-40
2023/06/06 04:54:31;;;;;;;;;;;18.90;99.90;;;;;;5093772;28;19923;-39
2023/06/06 04:56:57;;;;;;;;;;;18.90;99.90;;;;;;5093784;28;19916;-39
2023/06/06 04:59:23;;;;;;;;;;;18.90;99.90;;;;;;5093764;28;19916;-40
2023/06/06 05:01:48;;;;;;;;;;;18.90;99.90;;;;;;5093282;28;20445;-39
2023/06/06 05:04:15;;;;;;;;;;;18.90;99.90;;;;;;5093572;28;19915;-40
2023/06/06 05:06:41;;;;;;;;;;;18.90;99.90;;;;;;5093520;28;19961;-39
2023/06/06 05:09:07;;;;;;;;;;;18.90;99.90;;;;;;5093593;28;19912;-40
2023/06/06 05:11:35;;;;;;;;;;;18.90;99.90;;;;;;5093083;28;20394;-39
2023/06/06 05:14:01;;;;;;;;;;;18.90;99.90;;;;;;5093313;28;19951;-39
2023/06/06 05:16:27;;;;;;;;;;;18.90;99.90;;;;;;5093360;28;19948;-40
2023/06/06 05:18:52;;;;;;;;;;;18.90;99.90;;;;;;5093422;28;19908;-40
2023/06/06 05:21:18;;;;;;;;;;;19.00;99.90;;;;;;5092826;28;20434;-41
2023/06/06 05:23:44;;;;;;;;;;;18.90;99.90;;;;;;5093180;28;19912;-39
2023/06/06 05:26:10;;;;;;;;;;;19.00;99.90;;;;;;5093126;28;19926;-40
2023/06/06 05:28:36;;;;;;;;;;;19.00;99.90;;;;;;5093116;28;19908;-39
2023/06/06 05:31:02;;;;;;;;;;;18.90;99.90;;;;;;5092750;28;19913;-40
2023/06/06 05:33:30;;;;;;;;;;;19.00;99.90;;;;;;5093396;28;19924;-39
2023/06/06 05:35:56;;;;;;;;;;;19.00;99.90;;;;;;5092979;28;20216;-40
2023/06/06 05:38:21;;;;;;;;;;;19.00;99.90;;;;;;5091644;28;20486;-40
2023/06/06 05:40:47;;;;;;;;;;;19.00;99.90;;;;;;5092806;28;19908;-41
2023/06/06 05:43:13;;;;;;;;;;;19.00;99.90;;;;;;5092970;28;19949;-40
2023/06/06 05:45:39;;;;;;;;;;;19.00;99.90;;;;;;5093207;28;19962;-40
2023/06/06 05:48:05;;;;;;;;;;;19.00;99.90;;;;;;5094056;28;19994;-39
2023/06/06 05:50:30;;;;;;;;;;;19.00;99.90;;;;;;5092870;28;19912;-39
2023/06/06 05:52:56;;;;;;;;;;;19.00;99.90;;;;;;5092691;28;19916;-40
2023/06/06 05:55:35;;;;;;;;;;;19.00;99.90;;;;;;5092616;28;20369;-40
2023/06/06 05:58:01;;;;;;;;;;;19.00;99.90;;;;;;5092676;28;19944;-40
2023/06/06 06:00:28;;;;;;;;;;;19.00;99.90;;;;;;5093040;28;20385;-40
2023/06/06 06:02:55;;;;;;;;;;;19.10;99.90;;;;;;5092424;28;20293;-41
2023/06/06 06:05:28;;;;;;;;;;;19.00;99.90;;;;;;5092581;28;19912;-42
2023/06/06 06:07:59;;;;;;;;;;;19.10;99.90;;;;;;5092029;28;19919;-40
2023/06/06 06:10:34;;;;;;;;;;;19.10;99.90;;;;;;5091909;28;19914;-39
2023/06/06 06:13:00;;;;;;;;;;;19.10;99.90;;;;;;5092595;28;20007;-39
2023/06/06 06:15:26;;;;;;;;;;;19.10;99.90;;;;;;5092134;28;20417;-40
2023/06/06 06:17:52;;;;;;;;;;;19.10;99.90;;;;;;5092352;28;19912;-39
2023/06/06 06:20:19;;;;;;;;;;;19.10;99.90;;;;;;5091881;28;19959;-39
2023/06/06 06:22:45;;;;;;;;;;;19.10;99.90;;;;;;5092430;28;19908;-40
2023/06/06 06:25:14;;;;;;;;;;;19.20;99.90;;;;;;5092224;28;19959;-40
2023/06/06 06:27:43;;;;;;;;;;;19.20;99.90;;;;;;5092042;28;19927;-40
2023/06/06 06:30:09;;;;;;;;;;;19.20;99.90;;;;;;5091641;28;19912;-42
2023/06/06 06:32:36;;;;;;;;;;;19.20;99.90;;;;;;5091976;28;19930;-39
2023/06/06 06:35:02;;;;;;;;;;;19.20;99.90;;;;;;5091950;28;19908;-40
2023/06/06 06:37:31;;;;;;;;;;;19.20;99.90;;;;;;5092053;28;19912;-39
2023/06/06 06:39:56;;;;;;;;;;;19.20;99.90;;;;;;5091765;28;20293;-39
2023/06/06 06:42:22;;;;;;;;;;;19.30;99.90;;;;;;5090354;28;20361;-40
2023/06/06 06:44:48;;;;;;;;;;;19.30;99.90;;;;;;5091874;28;19916;-39
2023/06/06 06:47:14;;;;;;;;;;;19.20;99.90;;;;;;5091963;28;19908;-41
2023/06/06 06:49:40;;;;;;;;;;;19.30;99.90;;;;;;5091821;28;19915;-39
2023/06/06 06:52:07;;;;;;;;;;;19.30;99.90;;;;;;5091386;28;19908;-39
2023/06/06 06:54:44;;;;;;;;;;;19.30;99.90;;;;;;5091567;28;19912;-40
2023/06/06 06:57:09;;;;;;;;;;;19.30;99.90;;;;;;5091522;28;19953;-40
2023/06/06 06:59:35;;;;;;;;;;;19.30;99.90;;;;;;5091653;28;19912;-39
2023/06/06 07:02:02;;;;;;;;;;;19.30;99.90;;;;;;5091065;28;19914;-41
2023/06/06 07:04:28;;;;;;;;;;;19.30;99.90;;;;;;5091892;28;19915;-40
2023/06/06 07:06:55;;;;;;;;;;;19.30;99.90;;;;;;5091783;28;19989;-42
2023/06/06 07:09:21;;;;;;;;;;;19.30;99.90;;;;;;5091574;28;19908;-39
2023/06/06 07:11:46;;;;;;;;;;;19.30;99.90;;;;;;5091471;28;20002;-39
2023/06/06 07:14:12;;;;;;;;;;;19.30;99.90;;;;;;5091414;28;20019;-39
2023/06/06 07:16:37;;;;;;;;;;;19.30;99.90;;;;;;5091510;28;20166;-39
2023/06/06 07:19:03;;;;;;;;;;;19.30;99.90;;;;;;5091452;28;20277;-39
2023/06/06 07:21:28;;;;;;;;;;;19.40;99.90;;;;;;5093684;28;19958;-39
2023/06/06 07:23:55;;;;;;;;;;;19.30;99.90;;;;;;5095517;28;19914;-39
2023/06/06 07:26:20;;;;;;;;;;;19.40;99.90;;;;;;5095263;28;19920;-39
2023/06/06 07:28:49;;;;;;;;;;;19.40;99.90;;;;;;5095647;28;20006;-39
2023/06/06 07:31:15;;;;;;;;;;;19.40;99.90;;;;;;5095036;28;19951;-40
2023/06/06 07:33:40;;;;;;;;;;;19.40;99.90;;;;;;5095322;28;19958;-41
2023/06/06 07:36:06;;;;;;;;;;;19.40;99.90;;;;;;5095396;28;19919;-40
2023/06/06 07:38:32;;;;;;;;;;;19.40;99.90;;;;;;5095274;28;19916;-40
2023/06/06 07:40:58;;;;;;;;;;;19.40;99.90;;;;;;5094736;28;19916;-41
2023/06/06 07:43:23;;;;;;;;;;;19.40;99.90;;;;;;5095796;28;19908;-40
2023/06/06 07:45:50;;;;;;;;;;;19.30;99.90;;;;;;5095971;28;19916;-41
2023/06/06 07:48:15;;;;;;;;;;;19.40;99.90;;;;;;5095716;28;20254;-40
2023/06/06 07:50:41;;;;;;;;;;;19.30;99.90;;;;;;5094672;28;19912;-39
2023/06/06 07:53:06;;;;;;;;;;;19.40;99.90;;;;;;5094991;28;20405;-40
2023/06/06 07:55:32;;;;;;;;;;;19.50;99.90;;;;;;5094934;28;19908;-40
2023/06/06 07:57:58;;;;;;;;;;;19.50;99.90;;;;;;5094854;28;19908;-41
2023/06/06 08:00:23;;;;;;;;;;;19.50;99.90;;;;;;5094482;28;19991;-40
2023/06/06 08:02:49;;;;;;;;;;;19.50;99.90;;;;;;5095180;28;19961;-39
2023/06/06 08:05:16;;;;;;;;;;;19.50;99.90;;;;;;5095134;28;19908;-41
2023/06/06 08:07:41;;;;;;;;;;;19.50;99.90;;;;;;5094687;28;19909;-39
2023/06/06 08:10:07;;;;;;;;;;;19.50;99.90;;;;;;5094123;28;19951;-40
2023/06/06 08:12:33;;;;;;;;;;;19.60;99.90;;;;;;5094897;28;19908;-39
2023/06/06 08:14:58;;;;;;;;;;;19.60;99.40;;;;;;5094561;28;20396;-39
2023/06/06 08:17:24;;;;;;;;;;;19.60;99.50;;;;;;5094557;28;19908;-41
2023/06/06 08:19:49;;;;;;;;;;;19.70;99.30;;;;;;5094485;28;19919;-40
2023/06/06 08:22:15;;;;;;;;;;;19.80;99.20;;;;;;5094239;28;19908;-39
2023/06/06 08:24:41;;;;;;;;;;;19.90;99.00;;;;;;5094357;28;20332;-40
2023/06/06 08:27:07;;;;;;;;;;;20.00;98.70;;;;;;5094255;28;20450;-40
2023/06/06 08:29:33;;;;;;;;;;;20.00;98.60;;;;;;5094416;28;19912;-40
2023/06/06 08:32:01;;;;;;;;;;;20.00;98.70;;;;;;5093409;28;19916;-43
2023/06/06 08:34:27;;;;;;;;;;;20.10;98.90;;;;;;5094246;28;19955;-40
2023/06/06 08:36:53;;;;;;;;;;;20.00;99.00;;;;;;5094502;28;20301;-40
2023/06/06 08:39:19;;;;;;;;;;;20.00;99.00;;;;;;5094228;28;20010;-42
2023/06/06 08:41:49;;;;;;;;;;;20.00;99.20;;;;;;5093931;28;19954;-40
2023/06/06 08:44:15;;;;;;;;;;;19.90;99.20;;;;;;5094194;28;20365;-41
2023/06/06 08:46:41;;;;;;;;;;;19.90;99.30;;;;;;5094108;28;19998;-41
2023/06/06 08:49:08;;;;;;;;;;;19.90;99.40;;;;;;5094169;28;20334;-40
2023/06/06 08:51:33;;;;;;;;;;;19.90;99.40;;;;;;5093557;28;20354;-40
2023/06/06 08:54:02;;;;;;;;;;;19.90;99.50;;;;;;5093706;28;19923;-41
2023/06/06 08:56:27;;;;;;;;;;;19.80;99.20;;;;;;5092558;28;19908;-40
2023/06/06 08:58:53;;;;;;;;;;;20.00;98.70;;;;;;5093957;28;20057;-40
2023/06/06 09:01:22;;;;;;;;;;;20.00;99.00;;;;;;5093530;28;20039;-41
2023/06/06 09:03:48;;;;;;;;;;;20.00;99.00;;;;;;5093683;28;19915;-41
2023/06/06 09:06:16;;;;;;;;;;;20.10;99.10;;;;;;5093553;28;20319;-42
2023/06/06 09:08:43;;;;;;;;;;;20.10;99.00;;;;;;5093635;28;20298;-40
2023/06/06 09:11:08;;;;;;;;;;;20.10;99.10;;;;;;5093187;28;19919;-42
2023/06/06 09:13:34;;;;;;;;;;;20.10;99.10;;;;;;5093419;28;19912;-41
2023/06/06 09:16:00;;;;;;;;;;;20.20;99.20;;;;;;5093680;28;20517;-43
2023/06/06 09:18:27;;;;;;;;;;;20.20;99.30;;;;;;5093539;28;19918;-42
2023/06/06 09:20:53;;;;;;;;;;;20.20;99.20;;;;;;5093128;28;20321;-42
2023/06/06 09:23:18;;;;;;;;;;;20.20;99.20;;;;;;5093235;28;19919;-42
2023/06/06 09:25:45;;;;;;;;;;;20.20;99.20;;;;;;5093307;28;19915;-40
2023/06/06 09:28:10;;;;;;;;;;;20.20;99.20;;;;;;5093194;28;19920;-40
2023/06/06 09:30:36;;;;;;;;;;;20.30;99.30;;;;;;5092770;28;19957;-42
2023/06/06 09:33:02;;;;;;;;;;;20.20;99.30;;;;;;5093082;28;19912;-41
2023/06/06 09:35:41;;;;;;;;;;;20.20;99.30;;;;;;5093041;28;19908;-42
2023/06/06 09:38:10;;;;;;;;;;;20.20;99.30;;;;;;5093413;28;19973;-41
2023/06/06 09:40:45;;;;;;;;;;;20.30;99.40;;;;;;5092819;28;20037;-42
2023/06/06 09:43:11;;;;;;;;;;;20.30;99.40;;;;;;5091958;28;20377;-41
2023/06/06 09:45:46;;;;;;;;;;;20.30;99.40;;;;;;5092931;28;19912;-41
2023/06/06 09:48:12;;;;;;;;;;;20.30;99.40;;;;;;5092773;28;19919;-41
2023/06/06 09:50:41;;;;;;;;;;;20.30;99.40;;;;;;5092346;28;19909;-41
2023/06/06 09:53:11;;;;;;;;;;;20.30;99.40;;;;;;5092747;28;19916;-40
2023/06/06 09:55:37;;;;;;;;;;;20.30;99.40;;;;;;5092701;28;19912;-42
2023/06/06 09:58:02;;;;;;;;;;;20.30;99.40;;;;;;5092646;28;19921;-41
2023/06/06 10:00:28;;;;;;;;;;;20.30;99.40;;;;;;5092083;28;19912;-42
2023/06/06 10:02:54;;;;;;;;;;;20.30;99.50;;;;;;5092571;28;19904;-41
2023/06/06 10:05:20;;;;;;;;;;;20.30;99.50;;;;;;5092422;28;19908;-41
2023/06/06 10:07:46;;;;;;;;;;;20.30;99.80;;;;;;5092454;28;19912;-41
2023/06/06 10:10:13;;;;;;;;;;;20.30;99.50;;;;;;5092100;28;20377;-42
2023/06/06 10:12:39;;;;;;;;;;;20.30;99.50;;;;;;5092893;28;19912;-40
2023/06/06 10:15:05;;;;;;;;;;;20.30;99.50;;;;;;5092654;28;19912;-41
2023/06/06 10:17:34;;;;;;;;;;;20.30;99.50;;;;;;5092243;28;20430;-42
2023/06/06 10:20:05;;;;;;;;;;;20.30;99.60;;;;;;5091852;28;19953;-41
2023/06/06 10:22:32;;;;;;;;;;;20.30;99.50;;;;;;5092232;28;19930;-41
2023/06/06 10:24:58;;;;;;;;;;;20.30;99.50;;;;;;5092126;28;19908;-41
2023/06/06 10:27:26;;;;;;;;;;;20.30;99.50;;;;;;5092425;28;19920;-42
2023/06/06 10:30:17;;;;;;;;;;;20.30;99.40;;;;;;5092015;28;20460;-41
2023/06/06 10:32:59;;;;;;;;;;;20.30;99.40;;;;;;5092114;28;19912;-41
2023/06/06 10:35:25;;;;;;;;;;;20.30;99.40;;;;;;5091921;28;20010;-41
2023/06/06 10:38:01;;;;;;;;;;;20.30;99.50;;;;;;5092248;28;20340;-42
2023/06/06 10:40:26;;;;;;;;;;;20.30;99.50;;;;;;5091562;28;19915;-40
2023/06/06 10:42:53;;;;;;;;;;;20.30;99.50;;;;;;5091911;28;19960;-40
2023/06/06 10:45:38;;;;;;;;;;;20.30;99.50;;;;;;5092696;28;20383;-42
2023/06/06 10:48:04;;;;;;;;;;;20.30;99.50;;;;;;5091794;28;19919;-43
2023/06/06 10:50:30;;;;;;;;;;;20.40;99.50;;;;;;5091721;28;19958;-40
2023/06/06 10:52:58;;;;;;;;;;;20.30;99.50;;;;;;5091721;28;19908;-42
2023/06/06 10:55:24;;;;;;;;;;;20.30;99.50;;;;;;5091403;28;19916;-41
2023/06/06 10:57:50;;;;;;;;;;;20.30;99.50;;;;;;5091632;28;19912;-41
2023/06/06 11:00:16;;;;;;;;;;;20.30;99.50;;;;;;5091175;28;20297;-41
2023/06/06 11:02:41;;;;;;;;;;;20.30;99.50;;;;;;5091618;28;19991;-42
2023/06/06 11:05:07;;;;;;;;;;;20.30;99.40;;;;;;5091426;28;20034;-43
2023/06/06 11:07:33;;;;;;;;;;;20.30;99.50;;;;;;5092767;28;19915;-40
2023/06/06 11:09:58;;;;;;;;;;;20.30;99.50;;;;;;5091771;28;20389;-42
2023/06/06 11:12:27;;;;;;;;;;;20.30;99.50;;;;;;5091341;28;19912;-42
2023/06/06 11:14:55;;;;;;;;;;;20.30;99.50;;;;;;5091450;28;20021;-41
2023/06/06 11:17:24;;;;;;;;;;;20.30;99.50;;;;;;5091444;28;20332;-42
2023/06/06 11:19:51;;;;;;;;;;;20.30;99.50;;;;;;5091873;28;19965;-41
2023/06/06 11:22:21;;;;;;;;;;;20.30;99.50;;;;;;5091634;28;20439;-42
2023/06/06 11:24:46;;;;;;;;;;;20.30;99.40;;;;;;5091845;28;19918;-41
2023/06/06 11:27:14;;;;;;;;;;;20.30;99.80;;;;;;5091227;28;20007;-41
2023/06/06 11:29:40;;;;;;;;;;;20.30;99.40;;;;;;5091362;28;19909;-40
2023/06/06 11:32:09;;;;;;;;;;;20.40;99.40;;;;;;5090829;28;19915;-43
2023/06/06 11:34:35;;;;;;;;;;;20.40;99.30;;;;;;5091200;28;19916;-42
2023/06/06 11:37:00;;;;;;;;;;;20.40;99.30;;;;;;5091192;28;20342;-40
2023/06/06 11:39:27;;;;;;;;;;;20.40;99.30;;;;;;5092057;28;19962;-40
2023/06/06 11:41:52;;;;;;;;;;;20.40;99.30;;;;;;5090821;28;19912;-41
2023/06/06 11:44:18;;;;;;;;;;;20.40;99.30;;;;;;5091202;28;20010;-41
2023/06/06 11:46:51;;;;;;;;;;;20.40;99.30;;;;;;5092031;28;19908;-41
2023/06/06 11:49:17;;;;;;;;;;;20.40;99.20;;;;;;5092100;28;19908;-41
2023/06/06 11:51:43;;;;;;;;;;;20.30;99.10;;;;;;5091335;28;19908;-42
2023/06/06 11:54:10;;;;;;;;;;;20.40;99.10;;;;;;5091260;28;19916;-42
2023/06/06 11:56:35;;;;;;;;;;;20.30;99.10;;;;;;5091953;28;19964;-42
2023/06/06 11:59:01;;;;;;;;;;;20.40;99.10;;;;;;5091943;28;19912;-41
2023/06/06 12:01:26;;;;;;;;;;;20.40;99.10;;;;;;5091508;28;19908;-42
2023/06/06 12:03:52;;;;;;;;;;;20.30;99.10;;;;;;5090761;28;19951;-42
2023/06/06 12:06:17;;;;;;;;;;;20.30;99.20;;;;;;5091235;28;19915;-41
2023/06/06 12:08:43;;;;;;;;;;;20.30;99.20;;;;;;5094829;28;19912;-42
2023/06/06 12:11:27;;;;;;;;;;;20.30;99.20;;;;;;5094417;28;19916;-42
2023/06/06 12:13:53;;;;;;;;;;;20.30;99.20;;;;;;5094786;28;19912;-41
2023/06/06 12:16:22;;;;;;;;;;;20.30;99.10;;;;;;5095040;28;19951;-41
2023/06/06 12:18:49;;;;;;;;;;;20.30;99.10;;;;;;5094665;28;19912;-43
2023/06/06 12:21:17;;;;;;;;;;;20.30;99.10;;;;;;5094940;28;20274;-41
2023/06/06 12:23:43;;;;;;;;;;;20.30;99.10;;;;;;5094739;28;19916;-42
2023/06/06 12:26:11;;;;;;;;;;;20.30;99.10;;;;;;5094686;28;19927;-41
2023/06/06 12:28:53;;;;;;;;;;;20.30;99.10;;;;;;5094401;28;19978;-41
2023/06/06 12:31:19;;;;;;;;;;;20.30;99.10;;;;;;5094697;28;19965;-41
2023/06/06 12:33:45;;;;;;;;;;;20.30;99.10;;;;;;5094199;28;19916;-42
2023/06/06 12:36:15;;;;;;;;;;;20.30;99.10;;;;;;5094311;28;19991;-41
2023/06/06 12:38:40;;;;;;;;;;;20.30;99.00;;;;;;5094207;28;19912;-41
2023/06/06 12:41:06;;;;;;;;;;;20.30;99.00;;;;;;5094554;28;19931;-42
2023/06/06 12:43:32;;;;;;;;;;;20.30;99.00;;;;;;5094106;28;19995;-40
2023/06/06 12:45:57;;;;;;;;;;;20.30;99.00;;;;;;5094217;28;19935;-42
2023/06/06 12:48:25;;;;;;;;;;;20.30;98.90;;;;;;5094044;28;20007;-42
2023/06/06 12:50:51;;;;;;;;;;;20.30;98.90;;;;;;5094366;28;19912;-42
2023/06/06 12:53:19;;;;;;;;;;;20.30;98.90;;;;;;5093710;28;19920;-41
2023/06/06 12:55:45;;;;;;;;;;;20.30;98.90;;;;;;5093991;28;19908;-40
2023/06/06 12:58:11;;;;;;;;;;;20.30;98.90;;;;;;5094293;28;20343;-42
2023/06/06 13:00:38;;;;;;;;;;;20.40;98.90;;;;;;5093846;28;19961;-42
2023/06/06 13:03:05;;;;;;;;;;;20.30;98.90;;;;;;5093791;28;19909;-41
2023/06/06 13:05:31;;;;;;;;;;;20.40;98.90;;;;;;5093703;28;20289;-41
2023/06/06 13:07:57;;;;;;;;;;;20.40;97.70;;;;;;5093540;28;19913;-41
2023/06/06 13:10:22;;;;;;;;;;;20.70;95.50;;;;;;5093191;28;19961;-41
2023/06/06 13:12:49;;;;;;;;;;;20.70;96.20;;;;;;5093627;28;20353;-40
2023/06/06 13:15:15;;;;;;;;;;;20.80;96.40;;;;;;5093634;28;19912;-42
2023/06/06 13:17:41;;;;;;;;;;;20.80;96.50;;;;;;5093207;28;20308;-40
2023/06/06 13:20:08;;;;;;;;;;;20.80;96.70;;;;;;5093126;28;19919;-43
2023/06/06 13:22:33;;;;;;;;;;;20.70;96.70;;;;;;5093307;28;19908;-41
2023/06/06 13:24:59;;;;;;;;;;;20.70;96.80;;;;;;5093220;28;19908;-42
2023/06/06 13:27:25;;;;;;;;;;;20.70;96.90;;;;;;5093163;28;19916;-43
2023/06/06 13:29:51;;;;;;;;;;;20.60;97.00;;;;;;5093101;28;19912;-40
2023/06/06 13:32:16;;;;;;;;;;;20.50;97.10;;;;;;5092947;28;19908;-42
2023/06/06 13:34:42;;;;;;;;;;;20.50;97.20;;;;;;5093928;28;19920;-40
2023/06/06 13:37:07;;;;;;;;;;;20.50;97.30;;;;;;5092908;28;19965;-42
2023/06/06 13:39:33;;;;;;;;;;;20.50;97.30;;;;;;5093014;28;20285;-42
2023/06/06 13:41:59;;;;;;;;;;;20.40;97.30;;;;;;5092622;28;19923;-42
2023/06/06 13:44:24;;;;;;;;;;;20.40;97.40;;;;;;5092030;28;19908;-41
2023/06/06 13:46:50;;;;;;;;;;;20.50;97.50;;;;;;5093472;28;20308;-42
2023/06/06 13:49:19;;;;;;;;;;;20.40;97.50;;;;;;5092847;28;20254;-42
2023/06/06 13:51:45;;;;;;;;;;;20.40;97.60;;;;;;5092282;28;20441;-42
2023/06/06 13:54:11;;;;;;;;;;;20.40;97.60;;;;;;5093993;28;19919;-42
2023/06/06 13:56:44;;;;;;;;;;;20.40;97.60;;;;;;5093719;28;20297;-41
2023/06/06 13:59:09;;;;;;;;;;;20.50;97.60;;;;;;5092917;28;20385;-42
2023/06/06 14:01:36;;;;;;;;;;;20.40;97.60;;;;;;5092196;28;19953;-42
2023/06/06 14:04:02;;;;;;;;;;;20.40;97.50;;;;;;5092455;28;19995;-42
2023/06/06 14:06:27;;;;;;;;;;;20.40;97.60;;;;;;5092558;28;19921;-41
2023/06/06 14:08:54;;;;;;;;;;;20.40;97.60;;;;;;5093555;28;19908;-41
2023/06/06 14:11:20;;;;;;;;;;;20.40;97.50;;;;;;5092780;28;19999;-41
2023/06/06 14:13:46;;;;;;;;;;;20.40;97.50;;;;;;5093156;28;19935;-41